createdAt,value
2023-02-18T00:02:12.684Z,99476.61
2023-02-18T00:05:20.439Z,99484.73
2023-02-18T00:08:09.522Z,99493.81
2023-02-18T00:10:51.362Z,99494.70
2023-02-18T00:13:34.077Z,99497.70
2023-02-18T00:16:25.128Z,99499.23
2023-02-18T00:19:15.951Z,99506.84
2023-02-18T00:22:04.951Z,99498.17
2023-02-18T00:24:44.102Z,99506.80
2023-02-18T00:27:33.314Z,99504.97
2023-02-18T00:30:22.259Z,99506.67
2023-02-18T00:33:02.148Z,99506.77
2023-02-18T00:35:42.335Z,99500.39
2023-02-18T00:38:19.894Z,99506.89
2023-02-18T00:41:04.826Z,99512.35
2023-02-18T00:43:42.888Z,99498.52
2023-02-18T00:46:22.624Z,99503.91
2023-02-18T00:49:05.620Z,99511.20
2023-02-18T00:51:54.484Z,99517.08
2023-02-18T00:54:43.091Z,99516.14
2023-02-18T00:57:15.307Z,99513.44
2023-02-18T01:00:05.630Z,99522.23
2023-02-18T01:02:54.862Z,99528.28
2023-02-18T01:05:46.142Z,99533.57
2023-02-18T01:08:36.478Z,99535.98
2023-02-18T01:11:16.739Z,99540.45
2023-02-18T01:13:48.939Z,99542.69
2023-02-18T01:16:38.007Z,99538.25
2023-02-18T01:19:27.034Z,99535.88
2023-02-18T01:22:07.885Z,99537.38
2023-02-18T01:24:57.189Z,99542.77
2023-02-18T01:27:29.395Z,99537.95
2023-02-18T01:30:12.552Z,99543.77
2023-02-18T01:32:44.958Z,99546.93
2023-02-18T01:35:27.984Z,99545.79
2023-02-18T01:38:02.574Z,99547.68
2023-02-18T01:40:50.842Z,99543.52
2023-02-18T01:43:31.327Z,99547.65
2023-02-18T01:46:19.924Z,99545.21
2023-02-18T01:49:10.738Z,99552.98
2023-02-18T01:51:57.145Z,99549.28
2023-02-18T01:54:47.389Z,99542.01
2023-02-18T01:57:33.479Z,99543.82
2023-02-18T02:00:20.954Z,99543.59
2023-02-18T02:03:10.177Z,99546.09
2023-02-18T02:05:59.060Z,99542.33
2023-02-18T02:08:29.676Z,99544.55
2023-02-18T02:11:34.964Z,99548.52
2023-02-18T02:14:41.856Z,99550.15
2023-02-18T02:17:36.967Z,99554.89
2023-02-18T02:21:11.742Z,99555.64
2023-02-18T02:24:57.944Z,99534.48
2023-02-18T02:28:11.318Z,99539.45
2023-02-18T02:31:38.191Z,99542.30
2023-02-18T02:34:48.096Z,99544.81
2023-02-18T02:37:42.185Z,99547.45
2023-02-18T02:40:37.795Z,99554.48
2023-02-18T02:43:20.579Z,99556.27
2023-02-18T02:46:15.782Z,99554.73
2023-02-18T02:48:48.999Z,99562.70
2023-02-18T02:51:37.415Z,99561.92
2023-02-18T02:54:28.054Z,99566.84
2023-02-18T02:57:52.026Z,99572.10
2023-02-18T03:00:56.612Z,99573.17
2023-02-18T03:04:10.755Z,99572.33
2023-02-18T03:07:09.715Z,99571.60
2023-02-18T03:10:13.311Z,99573.21
2023-02-18T03:13:04.584Z,99576.55
2023-02-18T03:15:55.013Z,99574.83
2023-02-18T03:18:50.332Z,99577.69
2023-02-18T03:21:44.477Z,99580.54
2023-02-18T03:24:37.445Z,99580.75
2023-02-18T03:27:30.804Z,99578.44
2023-02-18T03:30:16.184Z,99575.36
2023-02-18T03:33:02.835Z,99574.66
2023-02-18T03:35:47.260Z,99573.27
2023-02-18T03:38:42.215Z,99565.42
2023-02-18T03:41:31.772Z,99574.17
2023-02-18T03:44:20.633Z,99580.98
2023-02-18T03:47:09.625Z,99582.83
2023-02-18T03:49:43.401Z,99583.43
2023-02-18T03:52:32.273Z,99583.58
2023-02-18T03:55:21.219Z,99579.72
2023-02-18T03:57:54.958Z,99585.90
2023-02-18T04:00:43.800Z,99592.59
2023-02-18T04:03:32.924Z,99594.04
2023-02-18T04:06:21.817Z,99599.90
2023-02-18T04:09:01.938Z,99604.64
2023-02-18T04:11:39.682Z,99618.08
2023-02-18T04:14:28.929Z,99621.80
2023-02-18T04:17:18.897Z,99614.52
2023-02-18T04:20:10.089Z,99615.38
2023-02-18T04:22:58.934Z,99623.95
2023-02-18T04:25:48.154Z,99628.02
2023-02-18T04:28:30.864Z,99634.85
2023-02-18T04:31:19.908Z,99636.73
2023-02-18T04:33:58.906Z,99633.77
2023-02-18T04:36:27.796Z,99630.84
2023-02-18T04:39:16.700Z,99631.16
2023-02-18T04:42:08.395Z,99634.27
2023-02-18T04:44:49.801Z,99637.81
2023-02-18T04:47:37.758Z,99639.90
2023-02-18T04:50:21.550Z,99643.85
2023-02-18T04:53:02.027Z,99641.60
2023-02-18T04:55:40.765Z,99645.77
2023-02-18T04:58:20.537Z,99641.39
2023-02-18T05:01:10.076Z,99637.61
2023-02-18T05:03:58.959Z,99636.10
2023-02-18T05:06:46.767Z,99638.96
2023-02-18T05:09:34.237Z,99638.65
2023-02-18T05:12:23.337Z,99634.45
2023-02-18T05:14:57.196Z,99636.23
2023-02-18T05:17:37.053Z,99639.89
2023-02-18T05:20:26.033Z,99639.64
2023-02-18T05:23:14.939Z,99649.64
2023-02-18T05:25:52.306Z,99653.89
2023-02-18T05:28:35.059Z,99644.48
2023-02-18T05:31:32.907Z,99642.96
2023-02-18T05:34:21.789Z,99646.77
2023-02-18T05:37:10.431Z,99648.48
2023-02-18T05:39:44.435Z,99647.77
2023-02-18T05:42:33.419Z,99646.69
2023-02-18T05:45:07.314Z,99650.48
2023-02-18T05:47:52.691Z,99648.64
2023-02-18T05:50:41.963Z,99649.12
2023-02-18T05:53:24.903Z,99648.46
2023-02-18T05:56:13.823Z,99656.29
2023-02-18T05:59:02.804Z,99661.47
2023-02-18T06:01:51.887Z,99666.84
2023-02-18T06:04:31.828Z,99671.36
2023-02-18T06:07:20.733Z,99668.08
2023-02-18T06:10:00.821Z,99665.77
2023-02-18T06:12:49.676Z,99672.44
2023-02-18T06:15:38.962Z,99671.30
2023-02-18T06:18:27.888Z,99674.50
2023-02-18T06:21:10.468Z,99672.57
2023-02-18T06:23:48.888Z,99675.06
2023-02-18T06:26:27.577Z,99683.59
2023-02-18T06:29:03.840Z,99685.55
2023-02-18T06:31:42.728Z,99686.94
2023-02-18T06:34:24.574Z,99688.23
2023-02-18T06:37:14.065Z,99687.96
2023-02-18T06:39:56.032Z,99689.32
2023-02-18T06:42:57.002Z,99690.38
2023-02-18T06:45:49.411Z,99685.64
2023-02-18T06:48:39.101Z,99677.98
2023-02-18T06:51:11.050Z,99686.54
2023-02-18T06:54:00.032Z,99683.13
2023-02-18T06:56:39.788Z,99688.65
2023-02-18T06:59:31.508Z,99695.70
2023-02-18T07:02:13.708Z,99693.34
2023-02-18T07:05:02.802Z,99691.89
2023-02-18T07:07:53.046Z,99693.77
2023-02-18T07:10:32.621Z,99695.88
2023-02-18T07:13:22.194Z,99696.61
2023-02-18T07:16:01.832Z,99692.38
2023-02-18T07:18:41.953Z,99701.09
2023-02-18T07:21:31.494Z,99698.89
2023-02-18T07:24:25.600Z,99704.45
2023-02-18T07:27:13.238Z,99701.58
2023-02-18T07:30:02.316Z,99699.73
2023-02-18T07:32:51.548Z,99699.77
2023-02-18T07:35:31.056Z,99705.73
2023-02-18T07:38:10.418Z,99701.79
2023-02-18T07:41:00.288Z,99704.31
2023-02-18T07:43:49.841Z,99702.45
2023-02-18T07:46:31.537Z,99709.25
2023-02-18T07:49:20.464Z,99705.66
2023-02-18T07:52:09.839Z,99708.59
2023-02-18T07:54:50.103Z,99701.63
2023-02-18T07:57:28.767Z,99693.33
2023-02-18T08:00:18.847Z,99692.59
2023-02-18T08:03:08.029Z,99688.16
2023-02-18T08:05:57.375Z,99688.24
2023-02-18T08:08:46.880Z,99697.55
2023-02-18T08:11:30.418Z,99700.69
2023-02-18T08:14:19.426Z,99696.86
2023-02-18T08:17:09.223Z,99690.98
2023-02-18T08:19:58.487Z,99696.16
2023-02-18T08:22:47.744Z,99697.08
2023-02-18T08:25:28.983Z,99690.09
2023-02-18T08:28:17.624Z,99696.78
2023-02-18T08:31:07.154Z,99705.09
2023-02-18T08:34:04.808Z,99703.20
2023-02-18T08:36:53.780Z,99699.38
2023-02-18T08:39:39.598Z,99698.05
2023-02-18T08:42:28.430Z,99701.52
2023-02-18T08:45:09.756Z,99694.14
2023-02-18T08:48:19.193Z,99690.48
2023-02-18T08:50:59.415Z,99694.67
2023-02-18T08:53:48.393Z,99705.27
2023-02-18T08:56:19.667Z,99707.39
2023-02-18T08:59:08.985Z,99717.60
2023-02-18T09:01:48.050Z,99715.50
2023-02-18T09:04:20.627Z,99710.05
2023-02-18T09:06:52.969Z,99714.83
2023-02-18T09:09:42.089Z,99717.73
2023-02-18T09:12:19.924Z,99716.33
2023-02-18T09:14:59.892Z,99712.73
2023-02-18T09:17:48.801Z,99715.16
2023-02-18T09:20:40.799Z,99708.64
2023-02-18T09:23:18.339Z,99707.59
2023-02-18T09:25:47.265Z,99710.68
2023-02-18T09:28:27.950Z,99720.32
2023-02-18T09:31:05.145Z,99714.79
2023-02-18T09:33:55.165Z,99722.30
2023-02-18T09:36:44.280Z,99721.70
2023-02-18T09:39:27.003Z,99727.19
2023-02-18T09:42:16.562Z,99729.30
2023-02-18T09:44:52.303Z,99731.36
2023-02-18T09:47:44.418Z,99728.27
2023-02-18T09:50:30.100Z,99721.95
2023-02-18T09:53:20.739Z,99719.45
2023-02-18T09:56:01.783Z,99720.02
2023-02-18T09:58:52.174Z,99719.04
2023-02-18T10:01:36.909Z,99720.52
2023-02-18T10:04:31.444Z,99716.24
2023-02-18T10:07:21.323Z,99715.43
2023-02-18T10:09:55.676Z,99711.81
2023-02-18T10:12:40.306Z,99711.23
2023-02-18T10:15:32.001Z,99705.08
2023-02-18T10:18:27.586Z,99697.71
2023-02-18T10:21:12.112Z,99690.41
2023-02-18T10:24:00.203Z,99690.73
2023-02-18T10:26:35.908Z,99676.85
2023-02-18T10:29:21.627Z,99678.89
2023-02-18T10:31:59.421Z,99666.27
2023-02-18T10:34:43.635Z,99666.59
2023-02-18T10:37:48.096Z,99658.48
2023-02-18T10:40:25.963Z,99656.73
2023-02-18T10:43:25.663Z,99648.63
2023-02-18T10:46:07.794Z,99646.00
2023-02-18T10:49:12.055Z,99637.15
2023-02-18T10:51:52.852Z,99631.29
2023-02-18T10:54:57.600Z,99629.22
2023-02-18T10:57:48.999Z,99620.45
2023-02-18T11:00:26.049Z,99624.35
2023-02-18T11:03:18.714Z,99626.95
2023-02-18T11:05:55.744Z,99626.24
2023-02-18T11:08:45.484Z,99613.81
2023-02-18T11:11:29.826Z,99609.54
2023-02-18T11:14:38.207Z,99604.92
2023-02-18T11:17:19.114Z,99604.46
2023-02-18T11:20:25.524Z,99600.09
2023-02-18T11:23:20.022Z,99597.23
2023-02-18T11:26:14.851Z,99588.25
2023-02-18T11:28:57.947Z,99579.23
2023-02-18T11:31:49.478Z,99579.45
2023-02-18T11:34:43.093Z,99568.83
2023-02-18T11:37:22.489Z,99562.09
2023-02-18T11:40:00.970Z,99562.36
2023-02-18T11:42:50.328Z,99560.17
2023-02-18T11:45:30.558Z,99552.94
2023-02-18T11:48:09.252Z,99547.83
2023-02-18T11:50:52.413Z,99545.91
2023-02-18T11:53:29.685Z,99539.46
2023-02-18T11:56:06.630Z,99536.73
2023-02-18T11:58:57.221Z,99535.70
2023-02-18T12:01:51.055Z,99521.89
2023-02-18T12:04:44.547Z,99510.94
2023-02-18T12:07:21.749Z,99508.85
2023-02-18T12:10:20.897Z,99503.23
2023-02-18T12:12:59.033Z,99498.14
2023-02-18T12:16:03.192Z,99490.48
2023-02-18T12:19:01.109Z,99478.79
2023-02-18T12:22:00.168Z,99457.26
2023-02-18T12:24:48.914Z,99445.08
2023-02-18T12:27:49.724Z,99439.13
2023-02-18T12:30:58.824Z,99431.52
2023-02-18T12:33:45.843Z,99429.23
2023-02-18T12:36:50.362Z,99434.32
2023-02-18T12:39:56.870Z,99421.63
2023-02-18T12:42:44.080Z,99411.14
2023-02-18T12:45:55.761Z,99402.59
2023-02-18T12:48:57.201Z,99392.42
2023-02-18T12:51:44.834Z,99386.70
2023-02-18T12:54:46.502Z,99377.52
2023-02-18T12:57:40.082Z,99373.30
2023-02-18T13:00:48.761Z,99368.26
2023-02-18T13:04:04.125Z,99361.65
2023-02-18T13:06:59.525Z,99338.86
2023-02-18T13:09:53.036Z,99340.42
2023-02-18T13:12:43.238Z,99325.84
2023-02-18T13:15:39.703Z,99321.55
2023-02-18T13:18:24.219Z,99312.67
2023-02-18T13:21:01.253Z,99309.16
2023-02-18T13:23:54.955Z,99305.01
2023-02-18T13:26:46.312Z,99305.38
2023-02-18T13:29:42.240Z,99295.10
2023-02-18T13:32:28.489Z,99283.09
2023-02-18T13:35:20.973Z,99269.38
2023-02-18T13:38:03.640Z,99266.48
2023-02-18T13:40:44.979Z,99254.02
2023-02-18T13:43:35.384Z,99262.98
2023-02-18T13:46:25.125Z,99252.73
2023-02-18T13:49:16.232Z,99243.04
2023-02-18T13:52:06.744Z,99228.48
2023-02-18T13:54:47.411Z,99226.32
2023-02-18T13:57:39.029Z,99215.83
2023-02-18T14:00:21.856Z,99213.55
2023-02-18T14:03:31.240Z,99202.31
2023-02-18T14:06:22.797Z,99174.36
2023-02-18T14:09:33.548Z,99173.77
2023-02-18T14:12:38.455Z,99191.43
2023-02-18T14:15:57.640Z,99165.61
2023-02-18T14:19:01.329Z,99141.85
2023-02-18T14:21:46.848Z,99141.14
2023-02-18T14:24:48.939Z,99129.08
2023-02-18T14:27:30.775Z,99115.42
2023-02-18T14:30:28.938Z,99125.17
2023-02-18T14:33:19.970Z,99139.63
2023-02-18T14:36:27.712Z,99130.29
2023-02-18T14:39:03.095Z,99120.39
2023-02-18T14:41:55.694Z,99126.47
2023-02-18T14:44:57.894Z,99125.24
2023-02-18T14:48:06.003Z,99113.43
2023-02-18T14:50:52.250Z,99106.60
2023-02-18T14:53:42.169Z,99101.90
2023-02-18T14:56:17.651Z,99089.73
2023-02-18T14:59:07.521Z,99098.05
2023-02-18T15:01:54.066Z,99086.84
2023-02-18T15:04:31.944Z,99079.88
2023-02-18T15:07:12.871Z,99063.19
2023-02-18T15:09:48.868Z,99056.05
2023-02-18T15:12:25.622Z,99049.81
2023-02-18T15:15:17.291Z,99046.60
2023-02-18T15:17:59.888Z,99051.23
2023-02-18T15:20:49.371Z,99047.31
2023-02-18T15:23:41.109Z,99046.12
2023-02-18T15:26:23.569Z,99039.37
2023-02-18T15:29:18.772Z,99038.27
2023-02-18T15:32:01.069Z,99029.11
2023-02-18T15:34:36.884Z,99017.59
2023-02-18T15:37:25.755Z,99011.17
2023-02-18T15:39:58.205Z,99017.99
2023-02-18T15:42:50.106Z,99012.73
2023-02-18T15:45:42.531Z,99009.38
2023-02-18T15:48:40.053Z,99012.75
2023-02-18T15:51:22.024Z,99009.20
2023-02-18T15:54:16.756Z,99002.23
2023-02-18T15:57:03.065Z,98999.55
2023-02-18T15:59:53.759Z,99001.98
2023-02-18T16:02:54.470Z,99008.71
2023-02-18T16:05:39.156Z,99004.41
2023-02-18T16:08:28.439Z,98998.80
2023-02-18T16:11:12.249Z,98995.90
2023-02-18T16:13:54.008Z,98994.27
2023-02-18T16:16:43.180Z,99002.02
2023-02-18T16:19:28.196Z,99003.80
2023-02-18T16:21:57.468Z,99006.64
2023-02-18T16:24:54.985Z,99007.48
2023-02-18T16:27:54.693Z,99002.90
2023-02-18T16:30:45.408Z,99007.84
2023-02-18T16:33:34.511Z,99010.17
2023-02-18T16:36:24.991Z,99011.61
2023-02-18T16:39:02.767Z,99006.39
2023-02-18T16:41:50.566Z,99001.89
2023-02-18T16:44:31.657Z,99004.86
2023-02-18T16:47:16.491Z,99004.30
2023-02-18T16:50:13.805Z,99001.42
2023-02-18T16:52:51.817Z,99005.57
2023-02-18T16:55:31.166Z,99007.30
2023-02-18T16:58:03.294Z,99003.23
2023-02-18T17:00:43.310Z,99010.05
2023-02-18T17:03:32.454Z,99009.57
2023-02-18T17:06:21.791Z,99009.13
2023-02-18T17:09:16.311Z,99011.43
2023-02-18T17:11:47.246Z,99019.36
2023-02-18T17:14:36.106Z,99028.30
2023-02-18T17:17:27.286Z,99029.38
2023-02-18T17:20:10.426Z,99031.60
2023-02-18T17:22:49.244Z,99046.41
2023-02-18T17:25:33.509Z,99050.27
2023-02-18T17:28:10.943Z,99055.33
2023-02-18T17:30:42.730Z,99056.88
2023-02-18T17:33:32.644Z,99056.30
2023-02-18T17:36:12.384Z,99051.48
2023-02-18T17:38:44.464Z,99045.92
2023-02-18T17:41:33.613Z,99051.27
2023-02-18T17:44:23.462Z,99063.02
2023-02-18T17:46:54.197Z,99066.38
2023-02-18T17:49:42.622Z,99067.45
2023-02-18T17:52:30.960Z,99066.67
2023-02-18T17:55:18.567Z,99069.92
2023-02-18T17:58:00.263Z,99079.53
2023-02-18T18:00:51.859Z,99080.11
2023-02-18T18:03:20.745Z,99085.48
2023-02-18T18:06:15.790Z,99091.10
2023-02-18T18:08:48.116Z,99100.40
2023-02-18T18:11:37.974Z,99102.58
2023-02-18T18:14:12.959Z,99107.95
2023-02-18T18:17:02.186Z,99104.89
2023-02-18T18:19:37.479Z,99107.65
2023-02-18T18:22:17.380Z,99111.04
2023-02-18T18:24:57.087Z,99118.98
2023-02-18T18:27:36.067Z,99118.96
2023-02-18T18:30:17.068Z,99117.77
2023-02-18T18:33:13.933Z,99119.24
2023-02-18T18:35:46.921Z,99118.91
2023-02-18T18:38:23.206Z,99122.09
2023-02-18T18:41:15.472Z,99124.70
2023-02-18T18:44:14.464Z,99134.23
2023-02-18T18:47:13.826Z,99138.94
2023-02-18T18:50:02.959Z,99138.23
2023-02-18T18:56:56.964Z,99133.11
2023-02-18T19:00:38.010Z,99137.65
2023-02-18T19:03:59.587Z,99141.56
2023-02-18T19:06:41.085Z,99148.48
2023-02-18T19:09:25.282Z,99155.06
2023-02-18T19:12:32.990Z,99154.94
2023-02-18T19:15:29.079Z,99154.60
2023-02-18T19:18:21.169Z,99154.42
2023-02-18T19:24:33.104Z,99161.21
2023-02-18T19:27:33.696Z,99156.80
2023-02-18T19:30:34.870Z,99161.98
2023-02-18T19:37:04.690Z,99174.29
2023-02-18T19:40:05.014Z,99177.58
2023-02-18T19:42:57.568Z,99181.59
2023-02-18T19:45:50.966Z,99183.98
2023-02-18T19:48:57.269Z,99193.48
2023-02-18T19:51:46.526Z,99204.62
2023-02-18T19:54:38.017Z,99203.26
2023-02-18T19:57:27.691Z,99204.24
2023-02-18T20:00:22.478Z,99216.92
2023-02-18T20:02:57.622Z,99213.95
2023-02-18T20:05:45.478Z,99230.04
2023-02-18T20:08:17.180Z,99236.39
2023-02-18T20:10:56.600Z,99235.74
2023-02-18T20:13:34.100Z,99241.89
2023-02-18T20:16:13.177Z,99248.69
2023-02-18T20:19:05.408Z,99259.13
2023-02-18T20:22:02.314Z,99270.44
2023-02-18T20:24:51.671Z,99298.16
2023-02-18T20:27:58.137Z,99321.83
2023-02-18T20:31:02.713Z,99328.87
2023-02-18T20:33:52.712Z,99337.44
2023-02-18T20:36:35.717Z,99335.20
2023-02-18T20:39:25.686Z,99341.86
2023-02-18T20:42:15.532Z,99350.80
2023-02-18T20:44:55.662Z,99362.42
2023-02-18T20:47:51.232Z,99362.98
2023-02-18T20:50:40.914Z,99349.95
2023-02-18T20:53:18.962Z,99361.08
2023-02-18T20:55:47.899Z,99364.64
2023-02-18T20:58:37.179Z,99385.25
2023-02-18T21:01:26.111Z,99388.58
2023-02-18T21:04:10.109Z,99379.25
2023-02-18T21:06:59.337Z,99378.35
2023-02-18T21:09:48.389Z,99383.64
2023-02-18T21:12:27.214Z,99389.84
2023-02-18T21:15:06.898Z,99381.73
2023-02-18T21:17:56.076Z,99390.25
2023-02-18T21:20:45.726Z,99392.02
2023-02-18T21:23:28.327Z,99394.61
2023-02-18T21:26:21.435Z,99402.33
2023-02-18T21:29:10.567Z,99405.52
2023-02-18T21:32:00.384Z,99405.96
2023-02-18T21:34:42.577Z,99408.46
2023-02-18T21:37:31.524Z,99414.30
2023-02-18T21:40:20.577Z,99416.90
2023-02-18T21:42:59.799Z,99419.84
2023-02-18T21:45:50.660Z,99422.61
2023-02-18T21:48:48.878Z,99424.69
2023-02-18T21:51:42.083Z,99426.42
2023-02-18T21:54:23.171Z,99426.13
2023-02-18T21:57:04.656Z,99425.42
2023-02-18T21:59:46.578Z,99428.44
2023-02-18T22:02:28.158Z,99432.77
2023-02-18T22:05:11.065Z,99433.11
2023-02-18T22:08:00.165Z,99432.55
2023-02-18T22:10:39.798Z,99430.04
2023-02-18T22:13:28.642Z,99440.95
2023-02-18T22:16:17.654Z,99444.69
2023-02-18T22:19:06.913Z,99445.58
2023-02-18T22:21:56.403Z,99446.55
2023-02-18T22:24:40.131Z,99452.67
2023-02-18T22:27:21.969Z,99454.90
2023-02-18T22:30:12.615Z,99458.17
2023-02-18T22:32:52.281Z,99464.11
2023-02-18T22:35:41.226Z,99467.30
2023-02-18T22:38:30.563Z,99474.25
2023-02-18T22:41:22.312Z,99476.31
2023-02-18T22:44:04.461Z,99478.48
2023-02-18T22:46:55.020Z,99476.57
2023-02-18T22:49:44.184Z,99481.91
2023-02-18T22:52:17.441Z,99482.99
2023-02-18T22:55:07.325Z,99483.35
2023-02-18T22:57:56.287Z,99481.73
2023-02-18T23:00:45.932Z,99491.80
2023-02-18T23:03:35.320Z,99491.85
2023-02-18T23:06:24.476Z,99492.11
2023-02-18T23:08:58.009Z,99488.39
2023-02-18T23:11:50.530Z,99495.73
2023-02-18T23:14:33.063Z,99495.06
2023-02-18T23:17:21.914Z,99496.54
2023-02-18T23:19:54.225Z,99499.69
2023-02-18T23:22:37.194Z,99498.77
2023-02-18T23:25:24.658Z,99494.52
2023-02-18T23:28:13.573Z,99491.66
2023-02-18T23:30:50.997Z,99490.84
2023-02-18T23:33:40.090Z,99489.43
2023-02-18T23:36:30.983Z,99491.76
2023-02-18T23:39:21.447Z,99486.94
2023-02-18T23:42:10.617Z,99484.00
2023-02-18T23:44:49.412Z,99484.80
2023-02-18T23:47:38.285Z,99486.09
2023-02-18T23:50:27.141Z,99486.75
2023-02-18T23:53:08.511Z,99485.98
2023-02-18T23:56:10.575Z,99484.92
2023-02-18T23:59:01.975Z,99485.48
